sensor_id;sensor_type;location;lat;lon;timestamp;temperature;humidity
19330;DHT22;9799;48.214;16.388;2022-10-16T00:03:17;13.60;99.90
19330;DHT22;9799;48.214;16.388;2022-10-16T00:06:39;13.60;99.90
19330;DHT22;9799;48.214;16.388;2022-10-16T00:10:00;13.50;99.90
19330;DHT22;9799;48.214;16.388;2022-10-16T00:13:23;13.50;99.90
19330;DHT22;9799;48.214;16.388;2022-10-16T00:16:44;13.50;99.90
19330;DHT22;9799;48.214;16.388;2022-10-16T00:20:06;13.50;99.90
19330;DHT22;9799;48.214;16.388;2022-10-16T00:23:27;13.50;99.90
19330;DHT22;9799;48.214;16.388;2022-10-16T00:26:49;13.60;99.90
19330;DHT22;9799;48.214;16.388;2022-10-16T00:30:12;13.60;99.90
19330;DHT22;9799;48.214;16.388;2022-10-16T00:33:34;13.50;99.90
19330;DHT22;9799;48.214;16.388;2022-10-16T00:36:55;13.50;99.90
19330;DHT22;9799;48.214;16.388;2022-10-16T00:40:16;13.50;99.90
19330;DHT22;9799;48.214;16.388;2022-10-16T00:43:40;13.60;99.90
19330;DHT22;9799;48.214;16.388;2022-10-16T00:47:03;13.70;99.90
19330;DHT22;9799;48.214;16.388;2022-10-16T00:50:28;13.60;99.90
19330;DHT22;9799;48.214;16.388;2022-10-16T00:53:50;13.60;99.90
19330;DHT22;9799;48.214;16.388;2022-10-16T00:57:12;13.70;99.90
19330;DHT22;9799;48.214;16.388;2022-10-16T01:00:33;13.60;99.90
19330;DHT22;9799;48.214;16.388;2022-10-16T01:03:56;13.60;99.90
19330;DHT22;9799;48.214;16.388;2022-10-16T01:07:25;13.50;99.90
19330;DHT22;9799;48.214;16.388;2022-10-16T01:10:54;13.40;99.90
19330;DHT22;9799;48.214;16.388;2022-10-16T01:14:22;13.40;99.90
19330;DHT22;9799;48.214;16.388;2022-10-16T01:17:49;13.40;99.90
19330;DHT22;9799;48.214;16.388;2022-10-16T01:21:17;13.30;99.90
19330;DHT22;9799;48.214;16.388;2022-10-16T01:24:40;13.30;99.90
19330;DHT22;9799;48.214;16.388;2022-10-16T01:28:05;13.40;99.90
19330;DHT22;9799;48.214;16.388;2022-10-16T01:31:32;13.40;99.90
19330;DHT22;9799;48.214;16.388;2022-10-16T01:35:00;13.30;99.90
19330;DHT22;9799;48.214;16.388;2022-10-16T01:38:27;13.40;99.90
19330;DHT22;9799;48.214;16.388;2022-10-16T01:41:56;13.40;99.90
19330;DHT22;9799;48.214;16.388;2022-10-16T01:45:21;13.40;99.90
19330;DHT22;9799;48.214;16.388;2022-10-16T01:48:42;13.40;99.90
19330;DHT22;9799;48.214;16.388;2022-10-16T01:52:06;13.40;99.90
19330;DHT22;9799;48.214;16.388;2022-10-16T01:55:30;13.40;99.90
19330;DHT22;9799;48.214;16.388;2022-10-16T01:58:55;13.40;99.90
19330;DHT22;9799;48.214;16.388;2022-10-16T02:02:18;13.50;99.90
19330;DHT22;9799;48.214;16.388;2022-10-16T02:05:45;13.40;99.90
19330;DHT22;9799;48.214;16.388;2022-10-16T02:09:06;13.40;99.90
19330;DHT22;9799;48.214;16.388;2022-10-16T02:12:30;13.50;99.90
19330;DHT22;9799;48.214;16.388;2022-10-16T02:15:52;13.50;99.90
19330;DHT22;9799;48.214;16.388;2022-10-16T02:19:15;13.50;99.90
19330;DHT22;9799;48.214;16.388;2022-10-16T02:22:40;13.50;99.90
19330;DHT22;9799;48.214;16.388;2022-10-16T02:26:07;13.50;99.90
19330;DHT22;9799;48.214;16.388;2022-10-16T02:29:29;13.50;99.90
19330;DHT22;9799;48.214;16.388;2022-10-16T02:32:51;13.50;99.90
19330;DHT22;9799;48.214;16.388;2022-10-16T02:36:15;13.60;99.90
19330;DHT22;9799;48.214;16.388;2022-10-16T02:39:37;13.60;99.90
19330;DHT22;9799;48.214;16.388;2022-10-16T02:42:59;13.60;99.90
19330;DHT22;9799;48.214;16.388;2022-10-16T02:46:21;13.60;99.90
19330;DHT22;9799;48.214;16.388;2022-10-16T02:49:42;13.70;99.90
19330;DHT22;9799;48.214;16.388;2022-10-16T02:53:04;13.70;99.90
19330;DHT22;9799;48.214;16.388;2022-10-16T02:56:26;13.70;99.90
19330;DHT22;9799;48.214;16.388;2022-10-16T02:59:47;13.60;99.90
19330;DHT22;9799;48.214;16.388;2022-10-16T03:03:08;13.50;99.90
19330;DHT22;9799;48.214;16.388;2022-10-16T03:06:29;13.40;99.90
19330;DHT22;9799;48.214;16.388;2022-10-16T03:09:52;13.40;99.90
19330;DHT22;9799;48.214;16.388;2022-10-16T03:13:14;13.40;99.90
19330;DHT22;9799;48.214;16.388;2022-10-16T03:16:35;13.40;99.90
19330;DHT22;9799;48.214;16.388;2022-10-16T03:19:56;13.40;99.90
19330;DHT22;9799;48.214;16.388;2022-10-16T03:23:17;13.40;99.90
19330;DHT22;9799;48.214;16.388;2022-10-16T03:26:40;13.50;99.90
19330;DHT22;9799;48.214;16.388;2022-10-16T03:30:01;13.40;99.90
19330;DHT22;9799;48.214;16.388;2022-10-16T03:33:22;13.30;99.90
19330;DHT22;9799;48.214;16.388;2022-10-16T03:36:43;13.40;99.90
19330;DHT22;9799;48.214;16.388;2022-10-16T03:40:06;13.50;99.90
19330;DHT22;9799;48.214;16.388;2022-10-16T03:43:28;13.40;99.90
19330;DHT22;9799;48.214;16.388;2022-10-16T03:46:50;13.30;99.90
19330;DHT22;9799;48.214;16.388;2022-10-16T03:50:11;13.30;99.90
19330;DHT22;9799;48.214;16.388;2022-10-16T03:53:32;13.30;99.90
19330;DHT22;9799;48.214;16.388;2022-10-16T03:56:53;13.20;99.90
19330;DHT22;9799;48.214;16.388;2022-10-16T04:00:16;13.30;99.90
19330;DHT22;9799;48.214;16.388;2022-10-16T04:03:37;13.40;99.90
19330;DHT22;9799;48.214;16.388;2022-10-16T04:06:58;13.40;99.90
19330;DHT22;9799;48.214;16.388;2022-10-16T04:10:19;13.20;99.90
19330;DHT22;9799;48.214;16.388;2022-10-16T04:13:41;13.10;99.90
19330;DHT22;9799;48.214;16.388;2022-10-16T04:17:03;13.10;99.90
19330;DHT22;9799;48.214;16.388;2022-10-16T04:20:25;13.10;99.90
19330;DHT22;9799;48.214;16.388;2022-10-16T04:23:46;13.10;99.90
19330;DHT22;9799;48.214;16.388;2022-10-16T04:27:07;13.20;99.90
19330;DHT22;9799;48.214;16.388;2022-10-16T04:30:28;13.20;99.90
19330;DHT22;9799;48.214;16.388;2022-10-16T04:33:50;13.20;99.90
19330;DHT22;9799;48.214;16.388;2022-10-16T04:37:11;13.10;99.90
19330;DHT22;9799;48.214;16.388;2022-10-16T04:40:33;13.10;99.90
19330;DHT22;9799;48.214;16.388;2022-10-16T04:43:56;12.90;99.90
19330;DHT22;9799;48.214;16.388;2022-10-16T04:47:17;13.00;99.90
19330;DHT22;9799;48.214;16.388;2022-10-16T04:50:39;12.90;99.90
19330;DHT22;9799;48.214;16.388;2022-10-16T04:54:00;12.80;99.90
19330;DHT22;9799;48.214;16.388;2022-10-16T04:57:22;12.80;99.90
19330;DHT22;9799;48.214;16.388;2022-10-16T05:00:44;12.70;99.90
19330;DHT22;9799;48.214;16.388;2022-10-16T05:04:05;12.70;99.90
19330;DHT22;9799;48.214;16.388;2022-10-16T05:07:28;12.70;99.90
19330;DHT22;9799;48.214;16.388;2022-10-16T05:10:49;12.70;99.90
19330;DHT22;9799;48.214;16.388;2022-10-16T05:14:10;12.60;99.90
19330;DHT22;9799;48.214;16.388;2022-10-16T05:17:31;12.60;99.90
19330;DHT22;9799;48.214;16.388;2022-10-16T05:20:53;12.70;99.90
19330;DHT22;9799;48.214;16.388;2022-10-16T05:24:15;12.60;99.90
19330;DHT22;9799;48.214;16.388;2022-10-16T05:27:37;12.60;99.90
19330;DHT22;9799;48.214;16.388;2022-10-16T05:30:58;12.50;99.90
19330;DHT22;9799;48.214;16.388;2022-10-16T05:34:19;12.50;99.90
19330;DHT22;9799;48.214;16.388;2022-10-16T05:37:41;12.60;99.90
19330;DHT22;9799;48.214;16.388;2022-10-16T05:41:04;12.50;99.90
19330;DHT22;9799;48.214;16.388;2022-10-16T05:44:26;12.50;99.90
19330;DHT22;9799;48.214;16.388;2022-10-16T05:47:47;12.50;99.90
19330;DHT22;9799;48.214;16.388;2022-10-16T05:51:10;12.50;99.90
19330;DHT22;9799;48.214;16.388;2022-10-16T05:54:32;12.50;99.90
19330;DHT22;9799;48.214;16.388;2022-10-16T05:57:55;12.50;99.90
19330;DHT22;9799;48.214;16.388;2022-10-16T06:01:18;12.50;99.90
19330;DHT22;9799;48.214;16.388;2022-10-16T06:04:40;12.50;99.90
19330;DHT22;9799;48.214;16.388;2022-10-16T06:08:01;12.50;99.90
19330;DHT22;9799;48.214;16.388;2022-10-16T06:11:25;12.50;99.90
19330;DHT22;9799;48.214;16.388;2022-10-16T06:14:48;12.50;99.90
19330;DHT22;9799;48.214;16.388;2022-10-16T06:18:09;12.50;99.90
19330;DHT22;9799;48.214;16.388;2022-10-16T06:21:30;12.50;99.90
19330;DHT22;9799;48.214;16.388;2022-10-16T06:24:51;12.60;99.90
19330;DHT22;9799;48.214;16.388;2022-10-16T06:28:13;12.70;99.90
19330;DHT22;9799;48.214;16.388;2022-10-16T06:31:36;12.80;99.90
19330;DHT22;9799;48.214;16.388;2022-10-16T06:34:57;12.90;99.90
19330;DHT22;9799;48.214;16.388;2022-10-16T06:38:18;12.70;99.90
19330;DHT22;9799;48.214;16.388;2022-10-16T06:41:39;12.60;99.90
19330;DHT22;9799;48.214;16.388;2022-10-16T06:45:00;12.70;99.90
19330;DHT22;9799;48.214;16.388;2022-10-16T06:48:24;12.60;99.90
19330;DHT22;9799;48.214;16.388;2022-10-16T06:51:46;12.70;99.90
19330;DHT22;9799;48.214;16.388;2022-10-16T06:55:07;12.70;99.90
19330;DHT22;9799;48.214;16.388;2022-10-16T06:58:28;12.70;99.90
19330;DHT22;9799;48.214;16.388;2022-10-16T07:01:50;12.70;99.90
19330;DHT22;9799;48.214;16.388;2022-10-16T07:05:13;12.80;99.90
19330;DHT22;9799;48.214;16.388;2022-10-16T07:08:35;12.90;99.90
19330;DHT22;9799;48.214;16.388;2022-10-16T07:11:56;12.90;99.90
19330;DHT22;9799;48.214;16.388;2022-10-16T07:15:17;12.90;99.90
19330;DHT22;9799;48.214;16.388;2022-10-16T07:18:39;13.00;99.90
19330;DHT22;9799;48.214;16.388;2022-10-16T07:22:03;12.90;99.90
19330;DHT22;9799;48.214;16.388;2022-10-16T07:25:24;12.70;99.90
19330;DHT22;9799;48.214;16.388;2022-10-16T07:28:45;12.80;99.90
19330;DHT22;9799;48.214;16.388;2022-10-16T07:32:06;12.80;99.90
19330;DHT22;9799;48.214;16.388;2022-10-16T07:35:28;12.90;99.90
19330;DHT22;9799;48.214;16.388;2022-10-16T07:38:50;13.00;99.90
19330;DHT22;9799;48.214;16.388;2022-10-16T07:42:11;13.00;99.90
19330;DHT22;9799;48.214;16.388;2022-10-16T07:45:32;13.10;99.90
19330;DHT22;9799;48.214;16.388;2022-10-16T07:48:54;13.20;99.90
19330;DHT22;9799;48.214;16.388;2022-10-16T07:52:15;13.20;99.90
19330;DHT22;9799;48.214;16.388;2022-10-16T07:55:38;13.10;99.90
19330;DHT22;9799;48.214;16.388;2022-10-16T07:58:59;13.00;99.90
19330;DHT22;9799;48.214;16.388;2022-10-16T08:02:21;13.00;99.90
19330;DHT22;9799;48.214;16.388;2022-10-16T08:05:42;13.10;99.90
19330;DHT22;9799;48.214;16.388;2022-10-16T08:09:03;13.00;99.90
19330;DHT22;9799;48.214;16.388;2022-10-16T08:12:25;13.00;99.90
19330;DHT22;9799;48.214;16.388;2022-10-16T08:15:47;13.10;99.90
19330;DHT22;9799;48.214;16.388;2022-10-16T08:19:08;13.10;99.90
19330;DHT22;9799;48.214;16.388;2022-10-16T08:22:29;13.10;99.90
19330;DHT22;9799;48.214;16.388;2022-10-16T08:25:51;13.10;99.90
19330;DHT22;9799;48.214;16.388;2022-10-16T08:29:14;13.20;99.90
19330;DHT22;9799;48.214;16.388;2022-10-16T08:32:35;13.40;99.90
19330;DHT22;9799;48.214;16.388;2022-10-16T08:35:57;13.40;99.90
19330;DHT22;9799;48.214;16.388;2022-10-16T08:39:18;13.40;99.90
19330;DHT22;9799;48.214;16.388;2022-10-16T08:42:56;13.40;99.90
19330;DHT22;9799;48.214;16.388;2022-10-16T08:46:34;13.50;99.90
19330;DHT22;9799;48.214;16.388;2022-10-16T08:49:59;13.60;99.90
19330;DHT22;9799;48.214;16.388;2022-10-16T08:53:24;13.70;99.90
19330;DHT22;9799;48.214;16.388;2022-10-16T08:56:47;13.70;99.90
19330;DHT22;9799;48.214;16.388;2022-10-16T09:00:13;13.70;99.90
19330;DHT22;9799;48.214;16.388;2022-10-16T09:03:54;13.70;99.90
19330;DHT22;9799;48.214;16.388;2022-10-16T09:07:21;13.70;99.90
19330;DHT22;9799;48.214;16.388;2022-10-16T09:10:49;13.80;99.90
19330;DHT22;9799;48.214;16.388;2022-10-16T09:18:12;13.70;99.90
19330;DHT22;9799;48.214;16.388;2022-10-16T09:21:40;13.80;99.90
19330;DHT22;9799;48.214;16.388;2022-10-16T09:25:11;13.70;99.90
19330;DHT22;9799;48.214;16.388;2022-10-16T09:28:32;13.70;99.90
19330;DHT22;9799;48.214;16.388;2022-10-16T09:31:55;13.80;99.90
19330;DHT22;9799;48.214;16.388;2022-10-16T09:35:20;13.80;99.90
19330;DHT22;9799;48.214;16.388;2022-10-16T09:38:44;13.90;99.90
19330;DHT22;9799;48.214;16.388;2022-10-16T09:42:05;14.00;99.90
19330;DHT22;9799;48.214;16.388;2022-10-16T09:45:26;14.10;99.90
19330;DHT22;9799;48.214;16.388;2022-10-16T09:48:49;14.20;99.90
19330;DHT22;9799;48.214;16.388;2022-10-16T09:52:12;14.40;99.90
19330;DHT22;9799;48.214;16.388;2022-10-16T09:55:35;14.40;99.90
19330;DHT22;9799;48.214;16.388;2022-10-16T09:58:58;14.30;99.90
19330;DHT22;9799;48.214;16.388;2022-10-16T10:02:23;14.20;99.90
19330;DHT22;9799;48.214;16.388;2022-10-16T10:05:49;14.20;99.90
19330;DHT22;9799;48.214;16.388;2022-10-16T10:09:19;14.40;99.90
19330;DHT22;9799;48.214;16.388;2022-10-16T10:12:42;14.50;99.90
19330;DHT22;9799;48.214;16.388;2022-10-16T10:16:06;14.60;99.90
19330;DHT22;9799;48.214;16.388;2022-10-16T10:19:27;14.60;99.90
19330;DHT22;9799;48.214;16.388;2022-10-16T10:22:50;14.60;99.90
19330;DHT22;9799;48.214;16.388;2022-10-16T10:26:14;14.90;99.90
19330;DHT22;9799;48.214;16.388;2022-10-16T10:29:46;15.00;99.90
19330;DHT22;9799;48.214;16.388;2022-10-16T10:33:18;15.10;99.90
19330;DHT22;9799;48.214;16.388;2022-10-16T10:36:41;15.20;99.90
19330;DHT22;9799;48.214;16.388;2022-10-16T10:40:14;15.20;99.90
19330;DHT22;9799;48.214;16.388;2022-10-16T10:43:47;15.20;99.90
19330;DHT22;9799;48.214;16.388;2022-10-16T10:47:20;15.30;99.90
19330;DHT22;9799;48.214;16.388;2022-10-16T10:50:48;15.50;99.90
19330;DHT22;9799;48.214;16.388;2022-10-16T10:54:14;15.40;99.90
19330;DHT22;9799;48.214;16.388;2022-10-16T10:57:46;15.60;99.90
19330;DHT22;9799;48.214;16.388;2022-10-16T11:01:14;15.70;99.90
19330;DHT22;9799;48.214;16.388;2022-10-16T11:04:50;15.80;99.90
19330;DHT22;9799;48.214;16.388;2022-10-16T11:08:18;15.90;99.90
19330;DHT22;9799;48.214;16.388;2022-10-16T11:11:43;15.80;99.90
19330;DHT22;9799;48.214;16.388;2022-10-16T11:15:12;16.00;99.90
19330;DHT22;9799;48.214;16.388;2022-10-16T11:18:43;16.10;99.90
19330;DHT22;9799;48.214;16.388;2022-10-16T11:22:13;16.30;99.90
19330;DHT22;9799;48.214;16.388;2022-10-16T11:25:36;16.30;99.90
19330;DHT22;9799;48.214;16.388;2022-10-16T11:28:57;16.40;99.90
19330;DHT22;9799;48.214;16.388;2022-10-16T11:32:22;16.40;99.90
19330;DHT22;9799;48.214;16.388;2022-10-16T11:35:51;16.40;99.90
19330;DHT22;9799;48.214;16.388;2022-10-16T11:39:20;16.60;99.90
19330;DHT22;9799;48.214;16.388;2022-10-16T11:42:46;16.70;99.90
19330;DHT22;9799;48.214;16.388;2022-10-16T11:46:13;16.80;99.90
19330;DHT22;9799;48.214;16.388;2022-10-16T11:49:37;16.90;99.90
19330;DHT22;9799;48.214;16.388;2022-10-16T11:53:04;16.90;99.90
19330;DHT22;9799;48.214;16.388;2022-10-16T11:56:32;16.90;99.90
19330;DHT22;9799;48.214;16.388;2022-10-16T12:00:00;16.90;99.90
19330;DHT22;9799;48.214;16.388;2022-10-16T12:03:27;17.00;99.90
19330;DHT22;9799;48.214;16.388;2022-10-16T12:06:53;16.90;99.90
19330;DHT22;9799;48.214;16.388;2022-10-16T12:10:22;17.00;99.90
19330;DHT22;9799;48.214;16.388;2022-10-16T12:13:45;17.10;99.90
19330;DHT22;9799;48.214;16.388;2022-10-16T12:17:25;17.20;99.90
19330;DHT22;9799;48.214;16.388;2022-10-16T12:20:54;17.20;99.90
19330;DHT22;9799;48.214;16.388;2022-10-16T12:24:33;17.30;99.90
19330;DHT22;9799;48.214;16.388;2022-10-16T12:27:59;17.30;99.90
19330;DHT22;9799;48.214;16.388;2022-10-16T12:31:22;17.30;99.90
19330;DHT22;9799;48.214;16.388;2022-10-16T12:34:44;17.30;99.90
19330;DHT22;9799;48.214;16.388;2022-10-16T12:38:16;17.30;99.90
19330;DHT22;9799;48.214;16.388;2022-10-16T12:41:37;17.40;99.90
19330;DHT22;9799;48.214;16.388;2022-10-16T12:45:00;17.40;99.90
19330;DHT22;9799;48.214;16.388;2022-10-16T12:48:23;17.50;99.90
19330;DHT22;9799;48.214;16.388;2022-10-16T12:51:45;17.50;99.90
19330;DHT22;9799;48.214;16.388;2022-10-16T12:55:15;17.60;99.90
19330;DHT22;9799;48.214;16.388;2022-10-16T12:58:51;17.60;99.90
19330;DHT22;9799;48.214;16.388;2022-10-16T13:02:37;17.70;99.90
19330;DHT22;9799;48.214;16.388;2022-10-16T13:06:13;17.70;99.90
19330;DHT22;9799;48.214;16.388;2022-10-16T13:09:43;17.70;99.90
19330;DHT22;9799;48.214;16.388;2022-10-16T13:13:25;17.70;99.90
19330;DHT22;9799;48.214;16.388;2022-10-16T13:16:56;17.80;99.90
19330;DHT22;9799;48.214;16.388;2022-10-16T13:20:26;17.90;99.90
19330;DHT22;9799;48.214;16.388;2022-10-16T13:23:58;17.90;99.90
19330;DHT22;9799;48.214;16.388;2022-10-16T13:27:29;17.90;99.90
19330;DHT22;9799;48.214;16.388;2022-10-16T13:30:53;18.10;99.90
19330;DHT22;9799;48.214;16.388;2022-10-16T13:34:17;18.60;99.90
19330;DHT22;9799;48.214;16.388;2022-10-16T13:37:39;18.90;99.90
19330;DHT22;9799;48.214;16.388;2022-10-16T13:41:04;19.00;99.90
19330;DHT22;9799;48.214;16.388;2022-10-16T13:44:26;19.00;99.90
19330;DHT22;9799;48.214;16.388;2022-10-16T13:47:47;19.10;99.90
19330;DHT22;9799;48.214;16.388;2022-10-16T13:51:13;19.00;99.90
19330;DHT22;9799;48.214;16.388;2022-10-16T13:54:34;19.00;99.90
19330;DHT22;9799;48.214;16.388;2022-10-16T13:58:07;19.00;99.90
19330;DHT22;9799;48.214;16.388;2022-10-16T14:01:30;19.00;99.90
19330;DHT22;9799;48.214;16.388;2022-10-16T14:04:53;18.90;99.90
19330;DHT22;9799;48.214;16.388;2022-10-16T14:08:15;19.10;99.90
19330;DHT22;9799;48.214;16.388;2022-10-16T14:11:43;19.10;99.90
19330;DHT22;9799;48.214;16.388;2022-10-16T14:15:17;19.10;99.90
19330;DHT22;9799;48.214;16.388;2022-10-16T14:18:39;19.10;99.90
19330;DHT22;9799;48.214;16.388;2022-10-16T14:22:01;19.10;99.90
19330;DHT22;9799;48.214;16.388;2022-10-16T14:25:25;19.00;99.90
19330;DHT22;9799;48.214;16.388;2022-10-16T14:28:48;19.10;99.90
19330;DHT22;9799;48.214;16.388;2022-10-16T14:32:23;19.20;99.90
19330;DHT22;9799;48.214;16.388;2022-10-16T14:35:44;19.20;99.90
19330;DHT22;9799;48.214;16.388;2022-10-16T14:39:17;19.00;99.90
19330;DHT22;9799;48.214;16.388;2022-10-16T14:42:43;19.10;99.90
19330;DHT22;9799;48.214;16.388;2022-10-16T14:46:11;19.40;99.90
19330;DHT22;9799;48.214;16.388;2022-10-16T14:49:35;19.40;99.90
19330;DHT22;9799;48.214;16.388;2022-10-16T14:52:56;19.40;99.90
19330;DHT22;9799;48.214;16.388;2022-10-16T14:56:19;19.50;99.90
19330;DHT22;9799;48.214;16.388;2022-10-16T14:59:42;19.40;99.90
19330;DHT22;9799;48.214;16.388;2022-10-16T15:03:04;19.40;99.90
19330;DHT22;9799;48.214;16.388;2022-10-16T15:06:26;19.40;99.90
19330;DHT22;9799;48.214;16.388;2022-10-16T15:09:47;19.40;99.90
19330;DHT22;9799;48.214;16.388;2022-10-16T15:13:11;19.40;99.90
19330;DHT22;9799;48.214;16.388;2022-10-16T15:16:33;19.30;99.90
19330;DHT22;9799;48.214;16.388;2022-10-16T15:19:54;19.20;99.90
19330;DHT22;9799;48.214;16.388;2022-10-16T15:23:18;19.10;99.90
19330;DHT22;9799;48.214;16.388;2022-10-16T15:26:41;19.00;99.90
19330;DHT22;9799;48.214;16.388;2022-10-16T15:30:02;19.00;99.90
19330;DHT22;9799;48.214;16.388;2022-10-16T15:33:25;19.00;99.90
19330;DHT22;9799;48.214;16.388;2022-10-16T15:36:52;18.80;99.90
19330;DHT22;9799;48.214;16.388;2022-10-16T15:40:17;18.60;99.90
19330;DHT22;9799;48.214;16.388;2022-10-16T15:43:39;18.60;99.90
19330;DHT22;9799;48.214;16.388;2022-10-16T15:47:00;18.50;99.90
19330;DHT22;9799;48.214;16.388;2022-10-16T15:50:28;18.40;99.90
19330;DHT22;9799;48.214;16.388;2022-10-16T15:53:50;18.30;99.90
19330;DHT22;9799;48.214;16.388;2022-10-16T15:57:12;18.20;99.90
19330;DHT22;9799;48.214;16.388;2022-10-16T16:00:34;18.20;99.90
19330;DHT22;9799;48.214;16.388;2022-10-16T16:03:55;18.10;99.90
19330;DHT22;9799;48.214;16.388;2022-10-16T16:07:18;18.10;99.90
19330;DHT22;9799;48.214;16.388;2022-10-16T16:10:40;18.00;99.90
19330;DHT22;9799;48.214;16.388;2022-10-16T16:14:01;18.00;99.90
19330;DHT22;9799;48.214;16.388;2022-10-16T16:17:22;17.90;99.90
19330;DHT22;9799;48.214;16.388;2022-10-16T16:20:44;17.90;99.90
19330;DHT22;9799;48.214;16.388;2022-10-16T16:24:07;17.80;99.90
19330;DHT22;9799;48.214;16.388;2022-10-16T16:27:28;17.80;99.90
19330;DHT22;9799;48.214;16.388;2022-10-16T16:30:53;17.80;99.90
19330;DHT22;9799;48.214;16.388;2022-10-16T16:34:14;17.70;99.90
19330;DHT22;9799;48.214;16.388;2022-10-16T16:37:35;17.70;99.90
19330;DHT22;9799;48.214;16.388;2022-10-16T16:40:58;17.70;99.90
19330;DHT22;9799;48.214;16.388;2022-10-16T16:44:19;17.70;99.90
19330;DHT22;9799;48.214;16.388;2022-10-16T16:47:41;17.70;99.90
19330;DHT22;9799;48.214;16.388;2022-10-16T16:51:03;17.70;99.90
19330;DHT22;9799;48.214;16.388;2022-10-16T16:54:25;17.70;99.90
19330;DHT22;9799;48.214;16.388;2022-10-16T16:57:49;17.60;99.90
19330;DHT22;9799;48.214;16.388;2022-10-16T17:01:12;17.50;99.90
19330;DHT22;9799;48.214;16.388;2022-10-16T17:04:33;17.50;99.90
19330;DHT22;9799;48.214;16.388;2022-10-16T17:07:56;17.50;99.90
19330;DHT22;9799;48.214;16.388;2022-10-16T17:11:21;17.40;99.90
19330;DHT22;9799;48.214;16.388;2022-10-16T17:14:45;17.50;99.90
19330;DHT22;9799;48.214;16.388;2022-10-16T17:18:07;17.40;99.90
19330;DHT22;9799;48.214;16.388;2022-10-16T17:21:30;17.40;99.90
19330;DHT22;9799;48.214;16.388;2022-10-16T17:24:52;17.40;99.90
19330;DHT22;9799;48.214;16.388;2022-10-16T17:28:14;17.40;99.90
19330;DHT22;9799;48.214;16.388;2022-10-16T17:31:38;17.30;99.90
19330;DHT22;9799;48.214;16.388;2022-10-16T17:35:02;17.30;99.90
19330;DHT22;9799;48.214;16.388;2022-10-16T17:38:24;17.30;99.90
19330;DHT22;9799;48.214;16.388;2022-10-16T17:41:46;17.30;99.90
19330;DHT22;9799;48.214;16.388;2022-10-16T17:45:09;17.30;99.90
19330;DHT22;9799;48.214;16.388;2022-10-16T17:48:36;17.30;99.90
19330;DHT22;9799;48.214;16.388;2022-10-16T17:51:58;17.20;99.90
19330;DHT22;9799;48.214;16.388;2022-10-16T17:55:22;17.10;99.90
19330;DHT22;9799;48.214;16.388;2022-10-16T17:58:48;17.10;99.90
19330;DHT22;9799;48.214;16.388;2022-10-16T18:02:10;17.20;99.90
19330;DHT22;9799;48.214;16.388;2022-10-16T18:05:37;17.20;99.90
19330;DHT22;9799;48.214;16.388;2022-10-16T18:09:00;17.20;99.90
19330;DHT22;9799;48.214;16.388;2022-10-16T18:12:25;17.10;99.90
19330;DHT22;9799;48.214;16.388;2022-10-16T18:15:59;17.10;99.90
19330;DHT22;9799;48.214;16.388;2022-10-16T18:19:21;17.10;99.90
19330;DHT22;9799;48.214;16.388;2022-10-16T18:22:44;17.00;99.90
19330;DHT22;9799;48.214;16.388;2022-10-16T18:26:07;17.00;99.90
19330;DHT22;9799;48.214;16.388;2022-10-16T18:29:30;17.00;99.90
19330;DHT22;9799;48.214;16.388;2022-10-16T18:32:54;17.00;99.90
19330;DHT22;9799;48.214;16.388;2022-10-16T18:36:20;16.90;99.90
19330;DHT22;9799;48.214;16.388;2022-10-16T18:39:48;16.90;99.90
19330;DHT22;9799;48.214;16.388;2022-10-16T18:43:10;16.90;99.90
19330;DHT22;9799;48.214;16.388;2022-10-16T18:46:32;16.80;99.90
19330;DHT22;9799;48.214;16.388;2022-10-16T18:49:54;16.80;99.90
19330;DHT22;9799;48.214;16.388;2022-10-16T18:53:17;16.80;99.90
19330;DHT22;9799;48.214;16.388;2022-10-16T18:56:41;16.80;99.90
19330;DHT22;9799;48.214;16.388;2022-10-16T19:00:05;16.70;99.90
19330;DHT22;9799;48.214;16.388;2022-10-16T19:03:29;16.60;99.90
19330;DHT22;9799;48.214;16.388;2022-10-16T19:06:52;16.70;99.90
19330;DHT22;9799;48.214;16.388;2022-10-16T19:10:15;16.60;99.90
19330;DHT22;9799;48.214;16.388;2022-10-16T19:13:39;16.70;99.90
19330;DHT22;9799;48.214;16.388;2022-10-16T19:17:02;16.60;99.90
19330;DHT22;9799;48.214;16.388;2022-10-16T19:20:24;16.60;99.90
19330;DHT22;9799;48.214;16.388;2022-10-16T19:23:51;16.60;99.90
19330;DHT22;9799;48.214;16.388;2022-10-16T19:27:13;16.60;99.90
19330;DHT22;9799;48.214;16.388;2022-10-16T19:30:37;16.60;99.90
19330;DHT22;9799;48.214;16.388;2022-10-16T19:34:00;16.60;99.90
19330;DHT22;9799;48.214;16.388;2022-10-16T19:37:23;16.60;99.90
19330;DHT22;9799;48.214;16.388;2022-10-16T19:40:46;16.50;99.90
19330;DHT22;9799;48.214;16.388;2022-10-16T19:44:10;16.50;99.90
19330;DHT22;9799;48.214;16.388;2022-10-16T19:47:33;16.50;99.90
19330;DHT22;9799;48.214;16.388;2022-10-16T19:50:55;16.50;99.90
19330;DHT22;9799;48.214;16.388;2022-10-16T19:54:17;16.40;99.90
19330;DHT22;9799;48.214;16.388;2022-10-16T19:57:38;16.40;99.90
19330;DHT22;9799;48.214;16.388;2022-10-16T20:00:59;16.40;99.90
19330;DHT22;9799;48.214;16.388;2022-10-16T20:04:22;16.40;99.90
19330;DHT22;9799;48.214;16.388;2022-10-16T20:07:43;16.40;99.90
19330;DHT22;9799;48.214;16.388;2022-10-16T20:11:05;16.30;99.90
19330;DHT22;9799;48.214;16.388;2022-10-16T20:14:29;16.30;99.90
19330;DHT22;9799;48.214;16.388;2022-10-16T20:17:51;16.30;99.90
19330;DHT22;9799;48.214;16.388;2022-10-16T20:21:16;16.30;99.90
19330;DHT22;9799;48.214;16.388;2022-10-16T20:24:37;16.20;99.90
19330;DHT22;9799;48.214;16.388;2022-10-16T20:27:59;16.20;99.90
19330;DHT22;9799;48.214;16.388;2022-10-16T20:31:23;16.20;99.90
19330;DHT22;9799;48.214;16.388;2022-10-16T20:34:44;16.20;99.90
19330;DHT22;9799;48.214;16.388;2022-10-16T20:38:10;16.20;99.90
19330;DHT22;9799;48.214;16.388;2022-10-16T20:41:32;16.20;99.90
19330;DHT22;9799;48.214;16.388;2022-10-16T20:44:53;16.20;99.90
19330;DHT22;9799;48.214;16.388;2022-10-16T20:48:14;16.20;99.90
19330;DHT22;9799;48.214;16.388;2022-10-16T20:51:35;16.10;99.90
19330;DHT22;9799;48.214;16.388;2022-10-16T20:54:58;16.00;99.90
19330;DHT22;9799;48.214;16.388;2022-10-16T20:58:19;16.10;99.90
19330;DHT22;9799;48.214;16.388;2022-10-16T21:01:40;16.00;99.90
19330;DHT22;9799;48.214;16.388;2022-10-16T21:05:01;16.00;99.90
19330;DHT22;9799;48.214;16.388;2022-10-16T21:08:23;16.00;99.90
19330;DHT22;9799;48.214;16.388;2022-10-16T21:11:45;16.00;99.90
19330;DHT22;9799;48.214;16.388;2022-10-16T21:15:07;16.00;99.90
19330;DHT22;9799;48.214;16.388;2022-10-16T21:18:28;16.00;99.90
19330;DHT22;9799;48.214;16.388;2022-10-16T21:21:50;15.90;99.90
19330;DHT22;9799;48.214;16.388;2022-10-16T21:25:11;15.90;99.90
19330;DHT22;9799;48.214;16.388;2022-10-16T21:28:34;15.90;99.90
19330;DHT22;9799;48.214;16.388;2022-10-16T21:31:55;15.90;99.90